Time;durP1;ratioP1;P1;durP2;ratioP2;P2;SDS_P1;SDS_P2;PMS_P1;PMS_P2;Temp;Humidity;BMP_temperature;BMP_pressure;BME280_temperature;BME280_humidity;BME280_pressure;Samples;Min_cycle;Max_cycle;Signal;HPM_P1;HPM_P2
2023/11/21 00:01:11;;;;;;;;;;;;;;;0.76;77.62;100913.11;106607;1256;61344;-78
2023/11/21 00:03:41;;;;;;;;;;;;;;;0.76;77.70;100912.40;106625;1256;127202;-79
2023/11/21 00:06:10;;;;;;;;;;;;;;;0.79;77.84;100916.20;106593;1257;66209;-79
2023/11/21 00:08:37;;;;;;;;;;;;;;;0.80;77.69;100921.31;106365;1257;124011;-80
2023/11/21 00:11:05;;;;;;;;;;;;;;;0.80;77.40;100924.89;106748;1255;61354;-85
2023/11/21 00:13:32;;;;;;;;;;;;;;;0.79;77.40;100932.42;106679;1257;61254;-85
2023/11/21 00:15:59;;;;;;;;;;;;;;;0.78;77.32;100934.46;106453;1256;123729;-85
2023/11/21 00:18:25;;;;;;;;;;;;;;;0.77;77.34;100935.27;106761;1256;64949;-79
2023/11/21 00:20:52;;;;;;;;;;;;;;;0.74;77.21;100935.58;106529;1257;123893;-79
2023/11/21 00:23:18;;;;;;;;;;;;;;;0.71;77.00;100940.20;106605;1256;61237;-78
2023/11/21 00:25:45;;;;;;;;;;;;;;;0.67;76.76;100940.09;106615;1256;61183;-79
2023/11/21 00:28:12;;;;;;;;;;;;;;;0.63;77.03;100940.72;106383;1258;123765;-80
2023/11/21 00:30:38;;;;;;;;;;;;;;;0.61;76.88;100945.17;106434;1256;64828;-80
2023/11/21 00:33:05;;;;;;;;;;;;;;;0.58;76.93;100946.39;106483;1256;124747;-80
2023/11/21 00:35:32;;;;;;;;;;;;;;;0.55;76.90;100943.95;106627;1256;59361;-80
2023/11/21 00:37:58;;;;;;;;;;;;;;;0.53;76.81;100947.97;106655;1260;61178;-80
2023/11/21 00:40:25;;;;;;;;;;;;;;;0.54;76.87;100953.37;106394;1257;124535;-80
2023/11/21 00:42:51;;;;;;;;;;;;;;;0.53;76.90;100960.77;106552;1256;64920;-80
2023/11/21 00:45:18;;;;;;;;;;;;;;;0.54;76.80;100964.30;106494;1256;124515;-80
2023/11/21 00:47:45;;;;;;;;;;;;;;;0.55;76.82;100965.92;106543;1256;60450;-80
2023/11/21 00:50:11;;;;;;;;;;;;;;;0.57;76.93;100969.00;106433;1257;59997;-79
2023/11/21 00:52:38;;;;;;;;;;;;;;;0.60;76.83;100973.96;106580;1256;124503;-80
2023/11/21 00:55:07;;;;;;;;;;;;;;;0.61;76.80;100974.44;106595;1256;66253;-80
2023/11/21 00:57:34;;;;;;;;;;;;;;;0.60;76.64;100977.09;106614;1256;123257;-79
2023/11/21 01:00:01;;;;;;;;;;;;;;;0.62;76.83;100978.42;106619;1256;61423;-79
2023/11/21 01:02:28;;;;;;;;;;;;;;;0.64;76.56;100976.83;106541;1256;124046;-79
2023/11/21 01:04:55;;;;;;;;;;;;;;;0.63;76.53;100973.50;106543;1256;74750;-85
2023/11/21 01:07:22;;;;;;;;;;;;;;;0.63;76.55;100976.80;106704;1256;66519;-85
2023/11/21 01:09:49;;;;;;;;;;;;;;;0.62;76.28;100972.55;106586;1260;123749;-85
2023/11/21 01:12:17;;;;;;;;;;;;;;;0.60;76.42;100977.27;106748;1257;61247;-85
2023/11/21 01:14:45;;;;;;;;;;;;;;;0.60;76.48;100977.62;106665;1256;124294;-86
2023/11/21 01:17:11;;;;;;;;;;;;;;;0.62;76.39;100985.67;106568;1256;74701;-85
2023/11/21 01:19:38;;;;;;;;;;;;;;;0.61;76.39;100979.44;106640;1257;64893;-86
2023/11/21 01:22:05;;;;;;;;;;;;;;;0.62;76.25;100981.39;106542;1260;124429;-86
2023/11/21 01:24:31;;;;;;;;;;;;;;;0.63;76.37;100980.76;106740;1256;61390;-86
2023/11/21 01:26:58;;;;;;;;;;;;;;;0.64;76.36;100990.34;106762;1255;124867;-86
2023/11/21 01:29:24;;;;;;;;;;;;;;;0.64;76.17;100994.27;106769;1256;73377;-86
2023/11/21 01:31:51;;;;;;;;;;;;;;;0.66;76.06;100991.33;106547;1256;65987;-86
2023/11/21 01:34:18;;;;;;;;;;;;;;;0.68;76.07;100990.76;106419;1257;124721;-86
2023/11/21 01:36:45;;;;;;;;;;;;;;;0.71;76.20;100988.19;106573;1256;61280;-86
2023/11/21 01:39:15;;;;;;;;;;;;;;;0.74;75.97;100993.09;106488;1257;124696;-87
2023/11/21 01:41:44;;;;;;;;;;;;;;;0.76;75.89;100995.66;106708;1256;75513;-86
2023/11/21 01:44:10;;;;;;;;;;;;;;;0.78;75.73;100999.41;106700;1259;66093;-85
2023/11/21 01:46:37;;;;;;;;;;;;;;;0.80;75.56;101000.04;106552;1256;124667;-85
2023/11/21 01:49:05;;;;;;;;;;;;;;;0.83;75.55;101006.82;106580;1257;61378;-85
2023/11/21 01:51:31;;;;;;;;;;;;;;;0.85;75.46;101002.99;106506;1256;123786;-85
2023/11/21 01:53:59;;;;;;;;;;;;;;;0.84;75.33;101004.66;106784;1256;74386;-85
2023/11/21 01:56:26;;;;;;;;;;;;;;;0.83;75.39;101008.05;106655;1257;123950;-84
2023/11/21 01:58:53;;;;;;;;;;;;;;;0.82;75.11;101013.86;106510;1256;72722;-85
2023/11/21 02:01:20;;;;;;;;;;;;;;;0.83;75.05;101013.92;106551;1256;61161;-85
2023/11/21 02:03:47;;;;;;;;;;;;;;;0.84;75.03;101018.45;106441;1258;124058;-85
2023/11/21 02:06:13;;;;;;;;;;;;;;;0.84;74.77;101017.05;106588;1256;73355;-79
2023/11/21 02:08:42;;;;;;;;;;;;;;;0.82;74.79;101017.27;106408;1256;123872;-79
2023/11/21 02:11:09;;;;;;;;;;;;;;;0.80;74.63;101017.16;106517;1256;71078;-84
2023/11/21 02:13:35;;;;;;;;;;;;;;;0.81;74.59;101019.44;106636;1260;61278;-86
2023/11/21 02:16:02;;;;;;;;;;;;;;;0.79;74.63;101021.94;106432;1257;123941;-85
2023/11/21 02:18:29;;;;;;;;;;;;;;;0.77;74.35;101028.70;106459;1259;73402;-80
2023/11/21 02:20:55;;;;;;;;;;;;;;;0.75;74.37;101033.94;106532;1256;124587;-79
2023/11/21 02:23:23;;;;;;;;;;;;;;;0.74;74.32;101035.95;106694;1256;72764;-79
2023/11/21 02:25:49;;;;;;;;;;;;;;;0.78;74.29;101040.86;106375;1258;61295;-79
2023/11/21 02:28:25;;;;;;;;;;;;;;;0.78;74.21;101040.17;106470;1259;124934;-79
2023/11/21 02:30:59;;;;;;;;;;;;;;;0.80;74.08;101043.58;106515;1256;74467;-79
2023/11/21 02:33:25;;;;;;;;;;;;;;;0.81;74.17;101045.21;106382;1257;124447;-78
2023/11/21 02:35:54;;;;;;;;;;;;;;;0.84;73.98;101046.96;106580;1262;71324;-83
2023/11/21 02:38:21;;;;;;;;;;;;;;;0.87;73.82;101046.64;106514;1258;61293;-84
2023/11/21 02:40:48;;;;;;;;;;;;;;;0.88;73.71;101045.83;106471;1256;124140;-86
2023/11/21 02:43:15;;;;;;;;;;;;;;;0.89;73.90;101044.42;106557;1257;74566;-86
2023/11/21 02:45:42;;;;;;;;;;;;;;;0.89;73.64;101044.92;106482;1256;124008;-87
2023/11/21 02:48:08;;;;;;;;;;;;;;;0.85;73.41;101044.64;106601;1257;70893;-86
2023/11/21 02:50:35;;;;;;;;;;;;;;;0.82;73.29;101044.23;106543;1257;124271;-85
2023/11/21 02:53:02;;;;;;;;;;;;;;;0.78;73.23;101040.21;106571;1257;61814;-85
2023/11/21 02:55:28;;;;;;;;;;;;;;;0.77;73.02;101042.40;105993;1259;73049;-86
2023/11/21 02:57:56;;;;;;;;;;;;;;;0.76;72.98;101045.71;106443;1257;122681;-86
2023/11/21 03:00:24;;;;;;;;;;;;;;;0.74;72.86;101050.05;106731;1256;72749;-84
2023/11/21 03:02:51;;;;;;;;;;;;;;;0.71;72.92;101048.16;106426;1256;124682;-84
2023/11/21 03:05:17;;;;;;;;;;;;;;;0.69;72.66;101051.29;106631;1261;61366;-78
2023/11/21 03:07:44;;;;;;;;;;;;;;;0.66;72.67;101052.81;106725;1256;73099;-78
2023/11/21 03:10:11;;;;;;;;;;;;;;;0.64;72.61;101055.59;106444;1256;124170;-79
2023/11/21 03:12:37;;;;;;;;;;;;;;;0.62;72.47;101056.13;106476;1256;72786;-78
2023/11/21 03:15:07;;;;;;;;;;;;;;;0.62;72.46;101060.63;106502;1256;124085;-78
2023/11/21 03:17:34;;;;;;;;;;;;;;;0.62;72.46;101066.65;106680;1256;61236;-77
2023/11/21 03:20:00;;;;;;;;;;;;;;;0.61;72.28;101071.95;106497;1257;61347;-80
2023/11/21 03:22:27;;;;;;;;;;;;;;;0.60;72.46;101073.09;106259;1257;123686;-80
2023/11/21 03:24:54;;;;;;;;;;;;;;;0.60;72.47;101074.47;106525;1256;71391;-79
2023/11/21 03:27:20;;;;;;;;;;;;;;;0.60;72.33;101076.05;106577;1256;124623;-78
2023/11/21 03:29:47;;;;;;;;;;;;;;;0.61;72.22;101076.45;106403;1257;61204;-79
2023/11/21 03:32:14;;;;;;;;;;;;;;;0.63;72.39;101079.91;106453;1257;72396;-80
2023/11/21 03:34:57;;;;;;;;;;;;;;;0.66;72.23;101080.10;106323;1256;124247;-80
2023/11/21 03:37:24;;;;;;;;;;;;;;;0.69;72.23;101081.20;106643;1256;72722;-79
2023/11/21 03:39:51;;;;;;;;;;;;;;;0.73;72.17;101076.77;106430;1259;125226;-80
2023/11/21 03:42:17;;;;;;;;;;;;;;;0.76;72.21;101072.19;106467;1256;61330;-79
2023/11/21 03:44:44;;;;;;;;;;;;;;;0.80;72.30;101074.48;106401;1257;124744;-79
2023/11/21 03:47:11;;;;;;;;;;;;;;;0.81;72.08;101071.46;106568;1256;63970;-80
2023/11/21 03:49:37;;;;;;;;;;;;;;;0.82;72.02;101070.88;106614;1257;71184;-80
2023/11/21 03:52:04;;;;;;;;;;;;;;;0.85;71.87;101067.77;106322;1256;124748;-80
2023/11/21 03:54:30;;;;;;;;;;;;;;;0.88;71.93;101069.89;106556;1259;61270;-80
2023/11/21 03:56:57;;;;;;;;;;;;;;;0.88;71.84;101069.86;106478;1256;123893;-79
2023/11/21 03:59:24;;;;;;;;;;;;;;;0.87;71.78;101072.94;106578;1256;64127;-79
2023/11/21 04:01:50;;;;;;;;;;;;;;;0.89;71.90;101077.39;106399;1256;71774;-80
2023/11/21 04:04:17;;;;;;;;;;;;;;;0.88;71.53;101079.57;106496;1260;123714;-81
2023/11/21 04:06:44;;;;;;;;;;;;;;;0.88;71.84;101084.05;106462;1256;61170;-79
2023/11/21 04:09:11;;;;;;;;;;;;;;;0.88;71.80;101083.92;106366;1256;124197;-78
2023/11/21 04:11:37;;;;;;;;;;;;;;;0.86;71.50;101089.43;106565;1256;65197;-79
2023/11/21 04:14:04;;;;;;;;;;;;;;;0.80;71.42;101091.96;106694;1256;71874;-86
2023/11/21 04:16:30;;;;;;;;;;;;;;;0.75;71.57;101097.31;106419;1260;123887;-85
2023/11/21 04:18:57;;;;;;;;;;;;;;;0.69;71.46;101093.63;106575;1261;59492;-85
2023/11/21 04:21:24;;;;;;;;;;;;;;;0.62;71.48;101095.23;106418;1256;123753;-85
2023/11/21 04:23:50;;;;;;;;;;;;;;;0.56;71.60;101102.94;106620;1257;65986;-85
2023/11/21 04:26:17;;;;;;;;;;;;;;;0.49;71.41;101103.96;106467;1256;72733;-85
2023/11/21 04:28:44;;;;;;;;;;;;;;;0.41;71.25;101107.20;106552;1257;123775;-85
2023/11/21 04:31:11;;;;;;;;;;;;;;;0.35;71.25;101110.86;106409;1259;61305;-86
2023/11/21 04:33:37;;;;;;;;;;;;;;;0.28;71.40;101117.30;106380;1256;123907;-84
2023/11/21 04:36:04;;;;;;;;;;;;;;;0.23;71.32;101122.12;106638;1256;64992;-84
2023/11/21 04:38:31;;;;;;;;;;;;;;;0.17;71.46;101125.70;106520;1260;123917;-84
2023/11/21 04:40:57;;;;;;;;;;;;;;;0.12;71.37;101123.02;106605;1256;61184;-85
2023/11/21 04:43:24;;;;;;;;;;;;;;;0.06;71.69;101123.16;106568;1256;61280;-85
2023/11/21 04:45:51;;;;;;;;;;;;;;;0.03;71.56;101126.01;106606;1256;124414;-86
2023/11/21 04:48:17;;;;;;;;;;;;;;;0.01;71.74;101127.93;106551;1257;66399;-86
2023/11/21 04:50:44;;;;;;;;;;;;;;;0.01;71.64;101128.46;106538;1256;124590;-89
2023/11/21 04:53:14;;;;;;;;;;;;;;;0.02;71.77;101130.73;106614;1259;61305;-81
2023/11/21 04:55:41;;;;;;;;;;;;;;;0.02;71.78;101133.56;106625;1259;61264;-81
2023/11/21 04:58:08;;;;;;;;;;;;;;;0.02;71.85;101135.46;106457;1257;125420;-88
2023/11/21 05:00:36;;;;;;;;;;;;;;;0.03;71.86;101137.75;106571;1258;66074;-81
2023/11/21 05:03:04;;;;;;;;;;;;;;;0.07;71.74;101147.35;106525;1256;124971;-80
2023/11/21 05:05:30;;;;;;;;;;;;;;;0.11;72.05;101152.20;106683;1256;61548;-81
2023/11/21 05:07:58;;;;;;;;;;;;;;;0.15;72.07;101154.34;106581;1256;61324;-81
2023/11/21 05:10:25;;;;;;;;;;;;;;;0.17;71.94;101159.01;106205;1262;123790;-83
2023/11/21 05:12:52;;;;;;;;;;;;;;;0.17;71.85;101160.71;106519;1257;65090;-87
2023/11/21 05:15:18;;;;;;;;;;;;;;;0.15;71.81;101162.67;106362;1256;123735;-88
2023/11/21 05:17:45;;;;;;;;;;;;;;;0.12;71.77;101163.46;106734;1256;61275;-88
2023/11/21 05:20:13;;;;;;;;;;;;;;;0.07;71.80;101161.66;106727;1256;61119;-88
2023/11/21 05:22:41;;;;;;;;;;;;;;;-0.02;71.93;101165.72;106588;1256;124336;-88
2023/11/21 05:25:08;;;;;;;;;;;;;;;-0.11;71.79;101168.66;106612;1256;65966;-88
2023/11/21 05:27:35;;;;;;;;;;;;;;;-0.21;71.97;101176.58;106494;1256;123911;-88
2023/11/21 05:30:03;;;;;;;;;;;;;;;-0.30;71.93;101185.55;106664;1256;61691;-87
2023/11/21 05:32:32;;;;;;;;;;;;;;;-0.37;71.95;101194.14;106569;1256;124256;-87
2023/11/21 05:34:59;;;;;;;;;;;;;;;-0.42;72.12;101199.81;106728;1256;73506;-92
2023/11/21 05:37:34;;;;;;;;;;;;;;;-0.44;72.28;101209.27;106596;1260;66261;-87
2023/11/21 05:40:05;;;;;;;;;;;;;;;-0.48;72.36;101209.67;106377;1256;124075;-87
2023/11/21 05:42:32;;;;;;;;;;;;;;;-0.50;72.42;101217.98;106411;1257;61350;-87
2023/11/21 05:45:09;;;;;;;;;;;;;;;-0.52;72.67;101224.86;106368;1256;125008;-88
2023/11/21 05:47:40;;;;;;;;;;;;;;;-0.53;72.75;101225.98;106357;1256;73348;-89
2023/11/21 05:50:10;;;;;;;;;;;;;;;-0.55;72.70;101234.49;106509;1256;66587;-89
2023/11/21 05:52:37;;;;;;;;;;;;;;;-0.56;72.84;101236.66;106556;1256;124773;-89
2023/11/21 05:55:25;;;;;;;;;;;;;;;-0.59;72.68;101237.48;106958;1262;61835;-93
2023/11/21 05:57:53;;;;;;;;;;;;;;;-0.64;72.67;101238.61;106932;1256;124702;-89
2023/11/21 06:00:21;;;;;;;;;;;;;;;-0.68;72.81;101246.04;106814;1256;74680;-90
2023/11/21 06:02:50;;;;;;;;;;;;;;;-0.73;72.80;101247.20;106851;1257;125821;-90
2023/11/21 06:05:17;;;;;;;;;;;;;;;-0.78;72.85;101256.34;106725;1256;72481;-89
2023/11/21 06:07:44;;;;;;;;;;;;;;;-0.83;72.89;101255.21;106650;1256;61391;-86
2023/11/21 06:10:13;;;;;;;;;;;;;;;-0.88;72.99;101256.56;106431;1256;124258;-88
2023/11/21 06:12:41;;;;;;;;;;;;;;;-0.92;73.00;101260.38;106838;1256;73724;-87
2023/11/21 06:15:08;;;;;;;;;;;;;;;-0.95;72.99;101265.60;106796;1256;124109;-90
2023/11/21 06:17:39;;;;;;;;;;;;;;;-1.01;72.96;101274.16;106716;1255;73694;-88
2023/11/21 06:20:09;;;;;;;;;;;;;;;-1.06;73.16;101276.52;106806;1256;61348;-86
2023/11/21 06:22:38;;;;;;;;;;;;;;;-1.10;73.06;101284.79;106551;1256;124080;-81
2023/11/21 06:25:05;;;;;;;;;;;;;;;-1.16;72.96;101292.43;106625;1262;73871;-81
2023/11/21 06:27:33;;;;;;;;;;;;;;;-1.22;73.04;101303.00;106495;1259;124171;-82
2023/11/21 06:29:59;;;;;;;;;;;;;;;-1.26;73.15;101308.12;106506;1256;71379;-81
2023/11/21 06:32:26;;;;;;;;;;;;;;;-1.30;73.27;101311.40;106447;1256;124406;-81
2023/11/21 06:34:54;;;;;;;;;;;;;;;-1.34;73.34;101318.16;106410;1256;61190;-81
2023/11/21 06:37:23;;;;;;;;;;;;;;;-1.38;73.37;101320.98;106374;1256;74498;-81
2023/11/21 06:39:52;;;;;;;;;;;;;;;-1.41;73.56;101323.81;106591;1258;124452;-81
2023/11/21 06:42:21;;;;;;;;;;;;;;;-1.44;73.45;101330.09;107097;1257;72463;-81
2023/11/21 06:44:48;;;;;;;;;;;;;;;-1.47;73.52;101335.49;106757;1260;125493;-81
2023/11/21 06:47:15;;;;;;;;;;;;;;;-1.49;73.75;101336.20;106966;1256;61235;-82
2023/11/21 06:49:42;;;;;;;;;;;;;;;-1.50;73.67;101340.58;106897;1256;73407;-88
2023/11/21 06:52:09;;;;;;;;;;;;;;;-1.50;73.76;101347.98;106917;1257;124731;-89
2023/11/21 06:54:36;;;;;;;;;;;;;;;-1.50;73.86;101355.73;106758;1257;72733;-90
2023/11/21 06:57:03;;;;;;;;;;;;;;;-1.48;73.77;101353.84;106802;1256;125014;-90
2023/11/21 06:59:30;;;;;;;;;;;;;;;-1.46;73.93;101360.73;106900;1259;61129;-89
2023/11/21 07:01:57;;;;;;;;;;;;;;;-1.45;73.98;101367.23;106548;1260;74825;-89
2023/11/21 07:04:25;;;;;;;;;;;;;;;-1.43;74.02;101370.30;106576;1259;125253;-89
2023/11/21 07:06:53;;;;;;;;;;;;;;;-1.39;74.02;101375.92;106497;1256;72714;-90
2023/11/21 07:09:25;;;;;;;;;;;;;;;-1.37;73.92;101379.91;106548;1261;123893;-89
2023/11/21 07:11:52;;;;;;;;;;;;;;;-1.36;73.92;101381.91;106640;1259;59580;-89
2023/11/21 07:14:19;;;;;;;;;;;;;;;-1.35;73.80;101383.17;106616;1256;73400;-90
2023/11/21 07:16:46;;;;;;;;;;;;;;;-1.35;73.95;101385.25;106455;1256;122878;-89
2023/11/21 07:19:12;;;;;;;;;;;;;;;-1.36;73.91;101389.14;106585;1259;71013;-89
2023/11/21 07:21:39;;;;;;;;;;;;;;;-1.36;73.94;101393.58;106381;1257;123967;-90
2023/11/21 07:24:07;;;;;;;;;;;;;;;-1.35;74.16;101390.85;106500;1256;61128;-81
2023/11/21 07:26:33;;;;;;;;;;;;;;;-1.35;74.04;101395.05;106513;1257;124563;-81
2023/11/21 07:29:00;;;;;;;;;;;;;;;-1.34;74.18;101402.82;106651;1256;64967;-81
2023/11/21 07:31:27;;;;;;;;;;;;;;;-1.33;74.11;101398.50;106623;1256;71392;-81
2023/11/21 07:33:54;;;;;;;;;;;;;;;-1.31;74.09;101399.54;106301;1259;124832;-81
2023/11/21 07:36:21;;;;;;;;;;;;;;;-1.29;74.20;101401.95;106499;1259;61236;-80
2023/11/21 07:38:48;;;;;;;;;;;;;;;-1.25;74.23;101403.48;106358;1256;125003;-80
2023/11/21 07:41:17;;;;;;;;;;;;;;;-1.19;74.11;101406.92;106506;1256;66313;-80
2023/11/21 07:43:44;;;;;;;;;;;;;;;-1.01;74.41;101403.14;106372;1256;71125;-80
2023/11/21 07:46:12;;;;;;;;;;;;;;;-0.93;74.15;101402.58;106368;1256;125302;-80
2023/11/21 07:48:39;;;;;;;;;;;;;;;-0.91;74.05;101405.71;106476;1256;61410;-80
2023/11/21 07:51:07;;;;;;;;;;;;;;;-0.87;73.86;101404.30;106394;1256;125136;-80
2023/11/21 07:53:34;;;;;;;;;;;;;;;-0.83;73.93;101400.33;106554;1256;64754;-80
2023/11/21 07:56:04;;;;;;;;;;;;;;;-0.79;73.87;101398.42;106614;1256;72748;-90
2023/11/21 07:58:41;;;;;;;;;;;;;;;-0.74;73.75;101400.34;106466;1257;126161;-81
2023/11/21 08:01:08;;;;;;;;;;;;;;;-0.72;73.55;101400.38;106596;1256;61106;-81
2023/11/21 08:03:34;;;;;;;;;;;;;;;-0.68;73.62;101400.86;106533;1258;124334;-81
2023/11/21 08:06:03;;;;;;;;;;;;;;;-0.65;73.40;101404.52;106524;1256;65662;-81
2023/11/21 08:08:29;;;;;;;;;;;;;;;-0.62;73.27;101403.52;106532;1256;124349;-90
2023/11/21 08:10:56;;;;;;;;;;;;;;;-0.61;73.29;101404.02;106463;1259;59575;-90
2023/11/21 08:13:24;;;;;;;;;;;;;;;-0.57;73.28;101408.77;106669;1261;61186;-91
2023/11/21 08:15:50;;;;;;;;;;;;;;;-0.54;73.13;101406.26;106628;1257;124975;-89
2023/11/21 08:18:17;;;;;;;;;;;;;;;-0.50;73.16;101408.98;106684;1257;65117;-89
2023/11/21 08:20:47;;;;;;;;;;;;;;;-0.45;73.20;101412.31;106446;1257;126461;-89
2023/11/21 08:23:15;;;;;;;;;;;;;;;-0.41;73.18;101414.40;106469;1259;61258;-89
2023/11/21 08:25:44;;;;;;;;;;;;;;;-0.35;73.02;101414.69;106620;1256;61153;-89
2023/11/21 08:28:11;;;;;;;;;;;;;;;-0.29;73.11;101418.63;106236;1259;124536;-90
2023/11/21 08:30:39;;;;;;;;;;;;;;;-0.22;73.03;101422.42;106583;1259;64874;-90
2023/11/21 08:33:05;;;;;;;;;;;;;;;-0.18;72.96;101428.09;106293;1260;124116;-90
2023/11/21 08:35:32;;;;;;;;;;;;;;;-0.15;72.80;101425.33;106489;1260;61352;-90
2023/11/21 08:37:59;;;;;;;;;;;;;;;-0.12;72.81;101426.10;106728;1259;60150;-90
2023/11/21 08:40:25;;;;;;;;;;;;;;;-0.10;72.71;101427.84;106540;1258;124126;-89
2023/11/21 08:42:52;;;;;;;;;;;;;;;-0.08;72.52;101433.84;106681;1256;64742;-88
2023/11/21 08:45:19;;;;;;;;;;;;;;;-0.06;72.68;101436.45;106493;1256;124162;-89
2023/11/21 08:47:47;;;;;;;;;;;;;;;-0.03;72.64;101437.52;106551;1260;61280;-90
2023/11/21 08:50:14;;;;;;;;;;;;;;;-0.00;72.46;101440.52;106581;1256;61242;-90
2023/11/21 08:52:42;;;;;;;;;;;;;;;0.04;72.70;101443.41;106448;1256;124684;-90
2023/11/21 08:55:08;;;;;;;;;;;;;;;0.08;72.85;101443.08;106445;1256;66469;-89
2023/11/21 08:57:35;;;;;;;;;;;;;;;0.15;72.76;101449.95;106459;1256;124554;-90
2023/11/21 09:00:10;;;;;;;;;;;;;;;0.20;72.77;101453.28;106594;1257;61216;-91
2023/11/21 09:02:37;;;;;;;;;;;;;;;0.26;72.54;101451.04;106914;1256;124863;-90
2023/11/21 09:05:05;;;;;;;;;;;;;;;0.33;72.68;101450.69;106878;1256;74606;-90
2023/11/21 09:07:32;;;;;;;;;;;;;;;0.39;72.92;101451.16;106766;1256;66241;-88
2023/11/21 09:09:58;;;;;;;;;;;;;;;0.47;72.81;101452.92;106861;1259;124139;-90
2023/11/21 09:12:25;;;;;;;;;;;;;;;0.53;72.71;101453.45;106862;1262;61380;-91
2023/11/21 09:14:52;;;;;;;;;;;;;;;0.60;72.88;101455.85;106900;1257;123881;-91
2023/11/21 09:17:19;;;;;;;;;;;;;;;0.67;72.90;101455.15;106820;1260;73327;-90
2023/11/21 09:19:49;;;;;;;;;;;;;;;0.72;72.82;101452.92;106896;1256;65083;-90
2023/11/21 09:22:16;;;;;;;;;;;;;;;0.72;72.75;101449.70;106619;1256;227049;-90
2023/11/21 09:24:43;;;;;;;;;;;;;;;0.80;72.75;101455.06;106907;1259;59741;-90
2023/11/21 09:27:11;;;;;;;;;;;;;;;0.83;72.68;101454.31;106848;1256;123936;-90
2023/11/21 09:29:40;;;;;;;;;;;;;;;0.88;72.57;101461.20;106834;1260;73513;-90
2023/11/21 09:32:08;;;;;;;;;;;;;;;0.91;72.69;101459.78;107166;1259;65521;-91
2023/11/21 09:34:38;;;;;;;;;;;;;;;0.96;72.56;101469.98;106744;1262;125990;-90
2023/11/21 09:37:06;;;;;;;;;;;;;;;1.02;72.37;101463.80;107142;1256;61349;-90
2023/11/21 09:39:35;;;;;;;;;;;;;;;1.07;72.22;101465.77;106894;1262;124038;-90
2023/11/21 09:42:21;;;;;;;;;;;;;;;1.12;71.95;101471.16;107014;1256;73533;-90
2023/11/21 09:44:59;;;;;;;;;;;;;;;1.16;71.72;101465.06;106841;1258;146427;-90
2023/11/21 09:47:25;;;;;;;;;;;;;;;1.20;71.73;101466.17;106823;1256;71477;-90
2023/11/21 09:49:52;;;;;;;;;;;;;;;1.23;71.37;101462.80;107019;1262;61311;-90
2023/11/21 09:52:23;;;;;;;;;;;;;;;1.27;71.07;101469.63;106986;1257;123764;-90
2023/11/21 09:54:50;;;;;;;;;;;;;;;1.29;71.02;101458.89;106977;1256;74377;-90
2023/11/21 09:57:17;;;;;;;;;;;;;;;1.30;70.94;101457.62;106965;1257;123771;-90
2023/11/21 09:59:44;;;;;;;;;;;;;;;1.34;70.56;101464.11;107081;1258;71479;-90
2023/11/21 10:02:13;;;;;;;;;;;;;;;1.36;70.11;101460.48;106846;1259;61308;-89
2023/11/21 10:04:39;;;;;;;;;;;;;;;1.39;70.14;101462.22;106601;1258;123561;-89
2023/11/21 10:07:09;;;;;;;;;;;;;;;1.44;70.03;101463.44;106730;1256;74689;-89
2023/11/21 10:09:37;;;;;;;;;;;;;;;1.47;69.86;101474.63;106483;1257;122854;-89
2023/11/21 10:12:06;;;;;;;;;;;;;;;1.51;69.59;101468.98;106613;1256;71474;-90
2023/11/21 10:14:33;;;;;;;;;;;;;;;1.59;69.75;101469.40;106486;1256;124290;-90
2023/11/21 10:17:00;;;;;;;;;;;;;;;1.69;69.89;101467.73;106528;1256;61200;-90
2023/11/21 10:19:27;;;;;;;;;;;;;;;1.77;69.58;101473.09;106626;1256;73352;-90
2023/11/21 10:21:54;;;;;;;;;;;;;;;1.80;69.30;101472.61;106541;1259;123719;-89
2023/11/21 10:24:46;;;;;;;;;;;;;;;1.82;69.14;101473.63;106445;1262;72694;-81
2023/11/21 10:27:13;;;;;;;;;;;;;;;1.86;68.80;101482.02;106499;1257;123708;-81
2023/11/21 10:29:40;;;;;;;;;;;;;;;1.87;68.76;101475.23;106581;1259;61374;-81
2023/11/21 10:32:08;;;;;;;;;;;;;;;1.90;68.48;101479.41;106541;1256;73378;-81
2023/11/21 10:34:35;;;;;;;;;;;;;;;1.94;68.43;101478.65;106385;1256;123749;-80
2023/11/21 10:37:10;;;;;;;;;;;;;;;2.01;68.28;101484.83;106370;1256;71047;-81
2023/11/21 10:39:38;;;;;;;;;;;;;;;2.04;68.16;101486.63;106509;1257;123892;-81
2023/11/21 10:42:06;;;;;;;;;;;;;;;2.10;67.87;101488.98;106575;1256;61424;-81
2023/11/21 10:44:33;;;;;;;;;;;;;;;2.18;68.12;101491.62;106432;1256;124464;-81
2023/11/21 10:47:00;;;;;;;;;;;;;;;2.27;67.91;101493.27;106577;1257;65085;-81
2023/11/21 10:49:27;;;;;;;;;;;;;;;2.28;67.52;101490.39;106413;1262;71443;-82
2023/11/21 10:51:54;;;;;;;;;;;;;;;2.21;67.22;101491.31;106474;1256;123804;-81
2023/11/21 10:54:20;;;;;;;;;;;;;;;2.17;66.82;101494.99;106578;1256;59535;-82
2023/11/21 10:56:51;;;;;;;;;;;;;;;2.13;66.63;101512.02;106363;1256;124211;-81
2023/11/21 10:59:18;;;;;;;;;;;;;;;2.06;66.36;101504.44;106474;1262;65345;-81
2023/11/21 11:01:45;;;;;;;;;;;;;;;1.97;66.23;101501.70;106702;1257;71413;-82
2023/11/21 11:04:16;;;;;;;;;;;;;;;1.90;66.40;101499.52;106526;1256;123915;-82
2023/11/21 11:06:43;;;;;;;;;;;;;;;1.88;66.34;101505.55;106466;1262;61234;-82
2023/11/21 11:09:13;;;;;;;;;;;;;;;1.90;66.38;101499.99;106465;1257;124176;-82
2023/11/21 11:11:41;;;;;;;;;;;;;;;1.94;66.22;101505.83;106762;1259;66503;-81
2023/11/21 11:14:10;;;;;;;;;;;;;;;1.96;66.02;101508.01;106585;1256;71492;-81
2023/11/21 11:16:37;;;;;;;;;;;;;;;1.98;65.83;101512.36;106389;1262;124049;-81
2023/11/21 11:19:04;;;;;;;;;;;;;;;1.98;65.73;101513.38;106538;1257;61292;-82
2023/11/21 11:21:39;;;;;;;;;;;;;;;1.96;65.90;101515.84;106417;1256;123677;-82
2023/11/21 11:24:15;;;;;;;;;;;;;;;1.95;65.85;101513.83;106693;1259;65015;-82
2023/11/21 11:26:46;;;;;;;;;;;;;;;1.94;65.81;101517.78;106508;1256;123930;-81
2023/11/21 11:29:15;;;;;;;;;;;;;;;1.94;65.64;101525.55;106555;1256;59741;-82
2023/11/21 11:31:53;;;;;;;;;;;;;;;1.96;65.78;101524.85;106391;1257;61372;-81
2023/11/21 11:34:20;;;;;;;;;;;;;;;2.02;65.79;101527.13;106427;1257;123958;-82
2023/11/21 11:37:03;;;;;;;;;;;;;;;2.05;65.76;101528.04;106657;1259;66218;-81
2023/11/21 11:39:30;;;;;;;;;;;;;;;2.05;65.58;101521.16;106470;1257;123888;-82
2023/11/21 11:42:00;;;;;;;;;;;;;;;2.04;65.69;101529.91;106449;1256;61257;-82
2023/11/21 11:44:45;;;;;;;;;;;;;;;2.00;65.57;101535.68;106415;1261;123913;-82
2023/11/21 11:47:16;;;;;;;;;;;;;;;1.93;65.38;101535.02;106529;1261;74654;-81
2023/11/21 11:49:58;;;;;;;;;;;;;;;1.90;65.12;101536.36;106547;1260;66046;-82
2023/11/21 11:52:34;;;;;;;;;;;;;;;1.88;64.97;101532.92;106313;1256;123722;-82
2023/11/21 11:55:02;;;;;;;;;;;;;;;1.90;65.16;101537.18;106453;1256;59295;-81
2023/11/21 11:57:40;;;;;;;;;;;;;;;1.91;65.18;101535.58;106381;1262;123855;-82
2023/11/21 12:00:16;;;;;;;;;;;;;;;1.93;65.23;101537.98;106450;1262;73329;-81
2023/11/21 12:02:47;;;;;;;;;;;;;;;1.96;65.30;101540.58;106489;1259;123981;-82
2023/11/21 12:05:20;;;;;;;;;;;;;;;1.98;64.98;101541.45;106467;1259;72128;-82
2023/11/21 12:07:50;;;;;;;;;;;;;;;2.00;64.98;101541.01;106459;1262;61183;-82
2023/11/21 12:10:20;;;;;;;;;;;;;;;2.03;65.12;101542.67;106408;1257;124053;-82
2023/11/21 12:12:47;;;;;;;;;;;;;;;2.10;64.99;101540.72;106446;1258;74750;-82
2023/11/21 12:15:14;;;;;;;;;;;;;;;2.20;64.99;101544.34;106411;1262;124950;-82
2023/11/21 12:17:41;;;;;;;;;;;;;;;2.27;64.92;101541.77;106520;1256;72675;-81
2023/11/21 12:20:14;;;;;;;;;;;;;;;2.37;65.00;101542.11;106511;1258;61263;-81
2023/11/21 12:22:49;;;;;;;;;;;;;;;2.49;64.95;101546.30;106450;1256;123574;-82
2023/11/21 12:25:18;;;;;;;;;;;;;;;2.63;64.78;101545.64;106556;1260;72693;-82
2023/11/21 12:27:45;;;;;;;;;;;;;;;2.78;64.90;101540.96;106505;1259;124297;-81
2023/11/21 12:30:15;;;;;;;;;;;;;;;2.81;64.34;101542.23;106443;1257;72431;-82
2023/11/21 12:32:47;;;;;;;;;;;;;;;2.73;64.05;101543.09;106410;1261;124119;-81
2023/11/21 12:35:14;;;;;;;;;;;;;;;2.67;63.97;101549.80;106420;1256;59268;-81